메인 페이지
METAR-TAF:

METAR-TAF

공항 :

이칼루이트, 누나부트, 캐나다

위도: 63-45N, 경도: 068-33W, 고도: 34m

현재 날씨관측

예보는 1 시간 4분 전, 13:04시(UTC)에 발표되었습니다.
26kt
온도 -22°C
습도 70%
기압 1004 hPa
시정: 9.7km
고도 200ft 상공 구름 조금
고도 4800ft 상공 구름 조금
고도 8900ft 상공 구름 보통
날린눈

METAR: CYFB 061304Z 36026KT 6SM BLSN FEW002 FEW048 SCT089 M22/M26 A2964 RMK ST1SC1AC2 ST TR SLP044

시각: 09:08 (14:08 UTC)

예보

예보는 2 시간 30분 전, 11:38시(UTC)에 발표되었습니다.
예보 대상 시간: 06일 12시부터 07일 12시까지 (UTC)
15kt, 순간 최대 풍속 25kt
시정: 9.7km
고도 4000ft 상공 구름 보통
고도 9000ft 상공 구름 많음
날린눈
일시적
06일 12시부터 06일 22시까지 (UTC)
고도 4000ft 상공 구름 많음
날린눈
확률 30%
06일 12시부터 06일 22시까지 (UTC)
날린눈
06일 2200시부터 (UTC)
북북서15kt
시정: 10km
맑음
전환 중
07일 04시부터 07일 06시까지 (UTC)
북북서8kt

TAF: CYFB 061138Z 0612/0712 35015G25KT 6SM BLSN SCT040 BKN090 TEMPO 0612/0622 21/2SM BLSN BKN040 PROB30 0612/0622 11/2SM BLSN FM062200 33015KT P6SM SKC BECMG 0704/0706 34008KT RMK NXT FCST BY 061800Z

4,000개 이상의 공항 관측 자료 및 예보 (METAR 및 TAF 보고).

지도상에서 검색 가능한 기상관측소가 노란 점과 빨간 점으로 표시되어 있습니다.

기상관측소 명을 보려면 표시 위로 마우스를 이동하세요.

날씨 관측과 예보를 보려면 클릭하세요.

지도 변경 : 확대하려면 엑스 표시가 있는 녹색 버튼, 축소하려면 빼기 표시가 있는 녹색 버튼, 다음 페이지의 지도를 보려면 녹색 화살표를 클릭하세요.


METAR-TAF: